Horseshoe Lake, Arkansas
Current Conditions -  °F | °C
As of 6:53 AM on Wednesday 22 Oct 2014 (Local Time) from KAWM Reporting Station
Clear Clear  
Wind Chill: 45°   Ceiling: Unl
Heat Index: 47°   Visibility: 10mi
Dew Point: 46°   Wind: 5mph
Humidity: 97%   Direction: 60°ENE
Pressure: 30.2"   Gusts: NA
Location:  34.9503°N, 90.5078°W
Report Text: KAWM 221153Z AUTO 06004KT 10SM CLR 08/08 A3020 RMK AO2 SLP225 T00830078 10128 20083 51022
Loading
Personal Weather Stations






























Interactive Weather Map
Tropical Storm Tracking
New forecast layout! Learn more

10-Day Weather Forecast

Advertisements
Track Severe Weather on mobile